sensor_id;sensor_type;location;lat;lon;timestamp;temperature;humidity
64396;DHT22;50717;53.360;6.290;2022-11-14T00:03:03;6.70;99.90
64396;DHT22;50717;53.360;6.290;2022-11-14T00:05:29;6.80;99.90
64396;DHT22;50717;53.360;6.290;2022-11-14T00:07:55;6.80;99.90
64396;DHT22;50717;53.360;6.290;2022-11-14T00:10:21;6.70;99.90
64396;DHT22;50717;53.360;6.290;2022-11-14T00:12:47;6.60;99.90
64396;DHT22;50717;53.360;6.290;2022-11-14T00:15:13;6.90;99.90
64396;DHT22;50717;53.360;6.290;2022-11-14T00:20:06;6.50;99.90
64396;DHT22;50717;53.360;6.290;2022-11-14T00:22:34;6.70;99.90
64396;DHT22;50717;53.360;6.290;2022-11-14T00:24:59;6.80;99.90
64396;DHT22;50717;53.360;6.290;2022-11-14T00:27:25;6.70;99.90
64396;DHT22;50717;53.360;6.290;2022-11-14T00:29:51;6.80;99.90
64396;DHT22;50717;53.360;6.290;2022-11-14T00:32:16;6.90;99.90
64396;DHT22;50717;53.360;6.290;2022-11-14T00:34:42;7.00;99.90
64396;DHT22;50717;53.360;6.290;2022-11-14T00:37:08;7.00;99.90
64396;DHT22;50717;53.360;6.290;2022-11-14T00:39:34;7.10;99.90
64396;DHT22;50717;53.360;6.290;2022-11-14T00:41:59;6.80;99.90
64396;DHT22;50717;53.360;6.290;2022-11-14T00:44:25;6.60;99.90
64396;DHT22;50717;53.360;6.290;2022-11-14T00:46:51;7.10;99.90
64396;DHT22;50717;53.360;6.290;2022-11-14T00:49:16;6.70;99.90
64396;DHT22;50717;53.360;6.290;2022-11-14T00:51:42;6.90;99.90
64396;DHT22;50717;53.360;6.290;2022-11-14T00:54:07;7.10;99.90
64396;DHT22;50717;53.360;6.290;2022-11-14T00:56:33;6.70;99.90
64396;DHT22;50717;53.360;6.290;2022-11-14T00:58:59;7.10;99.90
64396;DHT22;50717;53.360;6.290;2022-11-14T01:01:25;7.20;99.90
64396;DHT22;50717;53.360;6.290;2022-11-14T01:03:50;7.00;99.90
64396;DHT22;50717;53.360;6.290;2022-11-14T01:06:17;7.00;99.90
64396;DHT22;50717;53.360;6.290;2022-11-14T01:11:11;6.90;99.90
64396;DHT22;50717;53.360;6.290;2022-11-14T01:16:04;7.10;99.90
64396;DHT22;50717;53.360;6.290;2022-11-14T01:18:30;7.20;99.90
64396;DHT22;50717;53.360;6.290;2022-11-14T01:20:56;7.10;99.90
64396;DHT22;50717;53.360;6.290;2022-11-14T01:23:22;7.20;99.90
64396;DHT22;50717;53.360;6.290;2022-11-14T01:25:47;7.20;99.90
64396;DHT22;50717;53.360;6.290;2022-11-14T01:28:15;7.10;99.90
64396;DHT22;50717;53.360;6.290;2022-11-14T01:30:41;7.20;99.90
64396;DHT22;50717;53.360;6.290;2022-11-14T01:33:08;7.40;99.90
64396;DHT22;50717;53.360;6.290;2022-11-14T01:35:34;7.20;99.90
64396;DHT22;50717;53.360;6.290;2022-11-14T01:38:00;7.10;99.90
64396;DHT22;50717;53.360;6.290;2022-11-14T01:40:26;7.20;99.90
64396;DHT22;50717;53.360;6.290;2022-11-14T01:53:38;7.10;99.90
64396;DHT22;50717;53.360;6.290;2022-11-14T01:56:05;7.20;99.90
64396;DHT22;50717;53.360;6.290;2022-11-14T01:58:34;7.00;99.90
64396;DHT22;50717;53.360;6.290;2022-11-14T02:01:01;7.00;99.90
64396;DHT22;50717;53.360;6.290;2022-11-14T02:03:28;7.00;99.90
64396;DHT22;50717;53.360;6.290;2022-11-14T02:05:53;6.90;99.90
64396;DHT22;50717;53.360;6.290;2022-11-14T02:08:20;7.20;99.90
64396;DHT22;50717;53.360;6.290;2022-11-14T02:10:47;7.20;99.90
64396;DHT22;50717;53.360;6.290;2022-11-14T02:13:13;7.20;99.90
64396;DHT22;50717;53.360;6.290;2022-11-14T02:15:38;7.00;99.90
64396;DHT22;50717;53.360;6.290;2022-11-14T02:18:05;6.90;99.90
64396;DHT22;50717;53.360;6.290;2022-11-14T02:20:35;7.10;99.90
64396;DHT22;50717;53.360;6.290;2022-11-14T02:23:01;6.90;99.90
64396;DHT22;50717;53.360;6.290;2022-11-14T02:25:27;7.10;99.90
64396;DHT22;50717;53.360;6.290;2022-11-14T02:27:53;7.00;99.90
64396;DHT22;50717;53.360;6.290;2022-11-14T02:30:21;6.90;99.90
64396;DHT22;50717;53.360;6.290;2022-11-14T02:32:47;6.90;99.90
64396;DHT22;50717;53.360;6.290;2022-11-14T02:35:13;7.10;99.90
64396;DHT22;50717;53.360;6.290;2022-11-14T02:37:39;6.70;99.90
64396;DHT22;50717;53.360;6.290;2022-11-14T02:40:05;6.80;99.90
64396;DHT22;50717;53.360;6.290;2022-11-14T02:42:31;6.90;99.90
64396;DHT22;50717;53.360;6.290;2022-11-14T02:44:57;7.00;99.90
64396;DHT22;50717;53.360;6.290;2022-11-14T02:47:23;7.00;99.90
64396;DHT22;50717;53.360;6.290;2022-11-14T02:49:52;7.00;99.90
64396;DHT22;50717;53.360;6.290;2022-11-14T02:57:10;7.00;99.90
64396;DHT22;50717;53.360;6.290;2022-11-14T02:59:35;7.00;99.90
64396;DHT22;50717;53.360;6.290;2022-11-14T03:02:01;7.00;99.90
64396;DHT22;50717;53.360;6.290;2022-11-14T03:04:26;6.90;99.90
64396;DHT22;50717;53.360;6.290;2022-11-14T03:06:52;7.00;99.90
64396;DHT22;50717;53.360;6.290;2022-11-14T03:11:44;7.30;99.90
64396;DHT22;50717;53.360;6.290;2022-11-14T03:14:10;6.80;99.90
64396;DHT22;50717;53.360;6.290;2022-11-14T03:19:02;7.10;99.90
64396;DHT22;50717;53.360;6.290;2022-11-14T03:21:28;6.60;99.90
64396;DHT22;50717;53.360;6.290;2022-11-14T03:23:53;6.90;99.90
64396;DHT22;50717;53.360;6.290;2022-11-14T03:28:45;6.80;99.90
64396;DHT22;50717;53.360;6.290;2022-11-14T03:31:13;7.10;99.90
64396;DHT22;50717;53.360;6.290;2022-11-14T03:33:39;6.80;99.90
64396;DHT22;50717;53.360;6.290;2022-11-14T03:36:05;7.20;99.90
64396;DHT22;50717;53.360;6.290;2022-11-14T03:38:31;7.00;99.90
64396;DHT22;50717;53.360;6.290;2022-11-14T03:43:23;7.00;99.90
64396;DHT22;50717;53.360;6.290;2022-11-14T03:45:49;7.00;99.90
64396;DHT22;50717;53.360;6.290;2022-11-14T03:48:15;7.10;99.90
64396;DHT22;50717;53.360;6.290;2022-11-14T03:50:41;7.20;99.90
64396;DHT22;50717;53.360;6.290;2022-11-14T03:55:33;7.20;99.90
64396;DHT22;50717;53.360;6.290;2022-11-14T03:57:59;6.90;99.90
64396;DHT22;50717;53.360;6.290;2022-11-14T04:00:25;7.40;99.90
64396;DHT22;50717;53.360;6.290;2022-11-14T04:02:54;7.10;99.90
64396;DHT22;50717;53.360;6.290;2022-11-14T04:05:21;7.00;99.90
64396;DHT22;50717;53.360;6.290;2022-11-14T04:07:46;7.10;99.90
64396;DHT22;50717;53.360;6.290;2022-11-14T04:10:12;7.30;99.90
64396;DHT22;50717;53.360;6.290;2022-11-14T04:12:38;7.00;99.90
64396;DHT22;50717;53.360;6.290;2022-11-14T04:17:30;7.20;99.90
64396;DHT22;50717;53.360;6.290;2022-11-14T04:19:55;7.20;99.90
64396;DHT22;50717;53.360;6.290;2022-11-14T04:24:47;6.90;99.90
64396;DHT22;50717;53.360;6.290;2022-11-14T04:27:13;7.20;99.90
64396;DHT22;50717;53.360;6.290;2022-11-14T04:29:38;7.00;99.90
64396;DHT22;50717;53.360;6.290;2022-11-14T04:32:04;7.10;99.90
64396;DHT22;50717;53.360;6.290;2022-11-14T04:34:30;7.10;99.90
64396;DHT22;50717;53.360;6.290;2022-11-14T04:36:55;6.80;99.90
64396;DHT22;50717;53.360;6.290;2022-11-14T04:39:21;6.90;99.90
64396;DHT22;50717;53.360;6.290;2022-11-14T04:41:47;7.00;99.90
64396;DHT22;50717;53.360;6.290;2022-11-14T04:44:13;7.10;99.90
64396;DHT22;50717;53.360;6.290;2022-11-14T04:46:38;7.20;99.90
64396;DHT22;50717;53.360;6.290;2022-11-14T04:49:04;7.10;99.90
64396;DHT22;50717;53.360;6.290;2022-11-14T04:53:56;6.80;99.90
64396;DHT22;50717;53.360;6.290;2022-11-14T04:56:21;7.40;99.90
64396;DHT22;50717;53.360;6.290;2022-11-14T04:58:49;6.90;99.90
64396;DHT22;50717;53.360;6.290;2022-11-14T05:03:41;6.80;99.90
64396;DHT22;50717;53.360;6.290;2022-11-14T05:08:33;6.80;99.90
64396;DHT22;50717;53.360;6.290;2022-11-14T05:10:59;7.00;99.90
64396;DHT22;50717;53.360;6.290;2022-11-14T05:15:50;6.80;99.90
64396;DHT22;50717;53.360;6.290;2022-11-14T05:18:16;6.90;99.90
64396;DHT22;50717;53.360;6.290;2022-11-14T05:20:42;7.10;99.90
64396;DHT22;50717;53.360;6.290;2022-11-14T05:23:18;7.00;99.90
64396;DHT22;50717;53.360;6.290;2022-11-14T05:25:44;7.00;99.90
64396;DHT22;50717;53.360;6.290;2022-11-14T05:28:10;7.00;99.90
64396;DHT22;50717;53.360;6.290;2022-11-14T05:30:35;6.70;99.90
64396;DHT22;50717;53.360;6.290;2022-11-14T05:33:01;6.90;99.90
64396;DHT22;50717;53.360;6.290;2022-11-14T05:35:27;7.00;99.90
64396;DHT22;50717;53.360;6.290;2022-11-14T05:37:52;6.90;99.90
64396;DHT22;50717;53.360;6.290;2022-11-14T05:42:44;6.90;99.90
64396;DHT22;50717;53.360;6.290;2022-11-14T05:45:10;7.10;99.90
64396;DHT22;50717;53.360;6.290;2022-11-14T05:47:35;6.90;99.90
64396;DHT22;50717;53.360;6.290;2022-11-14T05:50:02;7.00;99.90
64396;DHT22;50717;53.360;6.290;2022-11-14T05:52:28;6.60;99.90
64396;DHT22;50717;53.360;6.290;2022-11-14T05:54:53;6.60;99.90
64396;DHT22;50717;53.360;6.290;2022-11-14T05:57:19;6.80;99.90
64396;DHT22;50717;53.360;6.290;2022-11-14T05:59:44;6.90;99.90
64396;DHT22;50717;53.360;6.290;2022-11-14T06:02:10;6.70;99.90
64396;DHT22;50717;53.360;6.290;2022-11-14T06:04:36;6.80;99.90
64396;DHT22;50717;53.360;6.290;2022-11-14T06:07:01;6.80;99.90
64396;DHT22;50717;53.360;6.290;2022-11-14T06:09:27;6.70;99.90
64396;DHT22;50717;53.360;6.290;2022-11-14T06:11:53;6.70;99.90
64396;DHT22;50717;53.360;6.290;2022-11-14T06:14:18;6.80;99.90
64396;DHT22;50717;53.360;6.290;2022-11-14T06:16:44;6.70;99.90
64396;DHT22;50717;53.360;6.290;2022-11-14T06:19:09;7.00;99.90
64396;DHT22;50717;53.360;6.290;2022-11-14T06:21:35;6.60;99.90
64396;DHT22;50717;53.360;6.290;2022-11-14T06:26:29;6.80;99.90
64396;DHT22;50717;53.360;6.290;2022-11-14T06:28:55;6.70;99.90
64396;DHT22;50717;53.360;6.290;2022-11-14T06:31:21;6.60;99.90
64396;DHT22;50717;53.360;6.290;2022-11-14T06:33:47;6.80;99.90
64396;DHT22;50717;53.360;6.290;2022-11-14T06:36:13;6.70;99.90
64396;DHT22;50717;53.360;6.290;2022-11-14T06:38:40;6.70;99.90
64396;DHT22;50717;53.360;6.290;2022-11-14T06:41:07;6.60;99.90
64396;DHT22;50717;53.360;6.290;2022-11-14T06:43:38;6.80;99.90
64396;DHT22;50717;53.360;6.290;2022-11-14T06:46:04;6.80;99.90
64396;DHT22;50717;53.360;6.290;2022-11-14T06:48:30;6.60;99.90
64396;DHT22;50717;53.360;6.290;2022-11-14T06:53:23;6.60;99.90
64396;DHT22;50717;53.360;6.290;2022-11-14T06:56:00;6.50;99.90
64396;DHT22;50717;53.360;6.290;2022-11-14T07:06:43;6.50;99.90
64396;DHT22;50717;53.360;6.290;2022-11-14T07:09:09;6.70;99.90
64396;DHT22;50717;53.360;6.290;2022-11-14T07:11:35;6.50;99.90
64396;DHT22;50717;53.360;6.290;2022-11-14T07:14:02;6.50;99.90
64396;DHT22;50717;53.360;6.290;2022-11-14T07:16:33;7.60;99.90
64396;DHT22;50717;53.360;6.290;2022-11-14T07:19:01;6.90;99.90
64396;DHT22;50717;53.360;6.290;2022-11-14T07:21:28;6.80;99.90
64396;DHT22;50717;53.360;6.290;2022-11-14T07:23:55;6.60;99.90
64396;DHT22;50717;53.360;6.290;2022-11-14T07:26:21;6.40;99.90
64396;DHT22;50717;53.360;6.290;2022-11-14T07:28:47;6.30;99.90
64396;DHT22;50717;53.360;6.290;2022-11-14T07:31:15;7.30;99.90
64396;DHT22;50717;53.360;6.290;2022-11-14T07:33:42;6.70;99.90
64396;DHT22;50717;53.360;6.290;2022-11-14T07:36:09;6.40;99.90
64396;DHT22;50717;53.360;6.290;2022-11-14T07:38:36;6.40;99.90
64396;DHT22;50717;53.360;6.290;2022-11-14T07:43:31;7.20;99.90
64396;DHT22;50717;53.360;6.290;2022-11-14T07:46:05;6.60;99.90
64396;DHT22;50717;53.360;6.290;2022-11-14T07:48:31;6.40;99.90
64396;DHT22;50717;53.360;6.290;2022-11-14T07:50:58;6.90;99.90
64396;DHT22;50717;53.360;6.290;2022-11-14T07:53:25;6.90;99.90
64396;DHT22;50717;53.360;6.290;2022-11-14T07:55:50;7.20;99.90
64396;DHT22;50717;53.360;6.290;2022-11-14T07:58:16;6.90;99.90
64396;DHT22;50717;53.360;6.290;2022-11-14T08:00:42;6.90;99.90
64396;DHT22;50717;53.360;6.290;2022-11-14T08:03:08;6.70;99.90
64396;DHT22;50717;53.360;6.290;2022-11-14T08:05:34;6.70;99.90
64396;DHT22;50717;53.360;6.290;2022-11-14T08:08:00;6.70;99.90
64396;DHT22;50717;53.360;6.290;2022-11-14T08:10:26;6.70;99.90
64396;DHT22;50717;53.360;6.290;2022-11-14T08:12:59;6.70;99.90
64396;DHT22;50717;53.360;6.290;2022-11-14T08:15:25;6.70;99.90
64396;DHT22;50717;53.360;6.290;2022-11-14T08:17:51;6.40;99.90
64396;DHT22;50717;53.360;6.290;2022-11-14T08:20:16;7.20;99.90
64396;DHT22;50717;53.360;6.290;2022-11-14T08:22:42;6.40;99.90
64396;DHT22;50717;53.360;6.290;2022-11-14T08:25:08;6.70;99.90
64396;DHT22;50717;53.360;6.290;2022-11-14T08:27:33;6.80;99.90
64396;DHT22;50717;53.360;6.290;2022-11-14T08:29:59;6.70;99.90
64396;DHT22;50717;53.360;6.290;2022-11-14T08:32:25;6.50;99.90
64396;DHT22;50717;53.360;6.290;2022-11-14T08:34:50;6.80;99.90
64396;DHT22;50717;53.360;6.290;2022-11-14T08:37:16;6.50;99.90
64396;DHT22;50717;53.360;6.290;2022-11-14T08:39:42;7.00;99.90
64396;DHT22;50717;53.360;6.290;2022-11-14T08:42:08;6.60;99.90
64396;DHT22;50717;53.360;6.290;2022-11-14T08:44:33;6.60;99.90
64396;DHT22;50717;53.360;6.290;2022-11-14T08:46:59;6.60;99.90
64396;DHT22;50717;53.360;6.290;2022-11-14T08:49:25;6.50;99.90
64396;DHT22;50717;53.360;6.290;2022-11-14T08:51:51;7.50;99.90
64396;DHT22;50717;53.360;6.290;2022-11-14T08:54:17;7.60;99.90
64396;DHT22;50717;53.360;6.290;2022-11-14T08:56:43;7.10;99.90
64396;DHT22;50717;53.360;6.290;2022-11-14T08:59:08;7.00;99.90
64396;DHT22;50717;53.360;6.290;2022-11-14T09:01:34;6.90;99.90
64396;DHT22;50717;53.360;6.290;2022-11-14T09:04:00;6.80;99.90
64396;DHT22;50717;53.360;6.290;2022-11-14T09:06:26;7.00;99.90
64396;DHT22;50717;53.360;6.290;2022-11-14T09:08:52;6.80;99.90
64396;DHT22;50717;53.360;6.290;2022-11-14T09:11:17;6.60;99.90
64396;DHT22;50717;53.360;6.290;2022-11-14T09:13:43;7.10;99.90
64396;DHT22;50717;53.360;6.290;2022-11-14T09:16:09;6.80;99.90
64396;DHT22;50717;53.360;6.290;2022-11-14T09:18:35;6.80;99.90
64396;DHT22;50717;53.360;6.290;2022-11-14T09:21:02;7.10;99.90
64396;DHT22;50717;53.360;6.290;2022-11-14T09:23:28;7.40;99.90
64396;DHT22;50717;53.360;6.290;2022-11-14T09:25:54;7.40;99.90
64396;DHT22;50717;53.360;6.290;2022-11-14T09:28:22;7.10;99.90
64396;DHT22;50717;53.360;6.290;2022-11-14T09:30:48;7.30;99.90
64396;DHT22;50717;53.360;6.290;2022-11-14T09:33:14;7.00;99.90
64396;DHT22;50717;53.360;6.290;2022-11-14T09:35:40;7.20;99.90
64396;DHT22;50717;53.360;6.290;2022-11-14T09:38:08;7.70;99.90
64396;DHT22;50717;53.360;6.290;2022-11-14T09:41:29;7.20;99.90
64396;DHT22;50717;53.360;6.290;2022-11-14T09:46:04;6.90;99.90
64396;DHT22;50717;53.360;6.290;2022-11-14T09:48:36;7.10;99.90
64396;DHT22;50717;53.360;6.290;2022-11-14T09:51:08;8.00;99.90
64396;DHT22;50717;53.360;6.290;2022-11-14T09:53:55;7.20;99.90
64396;DHT22;50717;53.360;6.290;2022-11-14T09:56:25;7.30;99.90
64396;DHT22;50717;53.360;6.290;2022-11-14T09:58:52;8.40;99.90
64396;DHT22;50717;53.360;6.290;2022-11-14T10:12:48;7.10;99.90
64396;DHT22;50717;53.360;6.290;2022-11-14T10:15:36;7.60;99.90
64396;DHT22;50717;53.360;6.290;2022-11-14T10:20:53;8.20;99.90
64396;DHT22;50717;53.360;6.290;2022-11-14T10:26:25;8.10;99.90
64396;DHT22;50717;53.360;6.290;2022-11-14T10:31:43;8.20;99.90
64396;DHT22;50717;53.360;6.290;2022-11-14T10:37:09;8.30;99.90
64396;DHT22;50717;53.360;6.290;2022-11-14T10:39:44;8.60;99.90
64396;DHT22;50717;53.360;6.290;2022-11-14T10:42:16;8.40;99.90
64396;DHT22;50717;53.360;6.290;2022-11-14T10:44:53;8.60;99.90
64396;DHT22;50717;53.360;6.290;2022-11-14T10:47:23;8.50;99.90
64396;DHT22;50717;53.360;6.290;2022-11-14T10:49:52;8.10;99.90
64396;DHT22;50717;53.360;6.290;2022-11-14T10:52:34;8.60;99.90
64396;DHT22;50717;53.360;6.290;2022-11-14T10:55:27;9.40;99.90
64396;DHT22;50717;53.360;6.290;2022-11-14T10:57:53;8.30;99.90
64396;DHT22;50717;53.360;6.290;2022-11-14T11:00:20;8.90;99.90
64396;DHT22;50717;53.360;6.290;2022-11-14T11:02:52;8.30;99.90
64396;DHT22;50717;53.360;6.290;2022-11-14T11:05:21;8.30;99.90
64396;DHT22;50717;53.360;6.290;2022-11-14T11:07:47;8.00;99.90
64396;DHT22;50717;53.360;6.290;2022-11-14T11:10:34;8.30;99.90
64396;DHT22;50717;53.360;6.290;2022-11-14T11:13:47;9.80;99.90
64396;DHT22;50717;53.360;6.290;2022-11-14T11:16:20;8.30;99.90
64396;DHT22;50717;53.360;6.290;2022-11-14T11:18:46;8.60;99.90
64396;DHT22;50717;53.360;6.290;2022-11-14T11:21:14;9.00;99.90
64396;DHT22;50717;53.360;6.290;2022-11-14T11:23:52;9.00;99.90
64396;DHT22;50717;53.360;6.290;2022-11-14T11:26:25;9.20;99.90
64396;DHT22;50717;53.360;6.290;2022-11-14T11:31:53;9.80;99.90
64396;DHT22;50717;53.360;6.290;2022-11-14T11:34:32;9.00;99.90
64396;DHT22;50717;53.360;6.290;2022-11-14T11:37:18;10.10;99.90
64396;DHT22;50717;53.360;6.290;2022-11-14T11:39:55;9.10;99.90
64396;DHT22;50717;53.360;6.290;2022-11-14T11:45:16;9.20;99.90
64396;DHT22;50717;53.360;6.290;2022-11-14T11:47:52;9.30;99.90
64396;DHT22;50717;53.360;6.290;2022-11-14T11:50:20;8.90;99.90
64396;DHT22;50717;53.360;6.290;2022-11-14T11:55:24;8.80;99.90
64396;DHT22;50717;53.360;6.290;2022-11-14T11:58:00;8.70;99.90
64396;DHT22;50717;53.360;6.290;2022-11-14T12:00:27;8.80;99.90
64396;DHT22;50717;53.360;6.290;2022-11-14T12:02:53;8.80;99.90
64396;DHT22;50717;53.360;6.290;2022-11-14T12:08:04;9.00;99.90
64396;DHT22;50717;53.360;6.290;2022-11-14T12:10:37;8.60;99.90
64396;DHT22;50717;53.360;6.290;2022-11-14T12:16:10;8.60;99.90
64396;DHT22;50717;53.360;6.290;2022-11-14T12:30:20;9.00;99.90
64396;DHT22;50717;53.360;6.290;2022-11-14T12:32:58;9.10;99.90
64396;DHT22;50717;53.360;6.290;2022-11-14T12:35:32;9.90;99.90
64396;DHT22;50717;53.360;6.290;2022-11-14T12:38:03;10.00;99.90
64396;DHT22;50717;53.360;6.290;2022-11-14T12:40:34;9.80;99.90
64396;DHT22;50717;53.360;6.290;2022-11-14T12:43:01;10.00;99.90
64396;DHT22;50717;53.360;6.290;2022-11-14T12:50:48;10.60;99.90
64396;DHT22;50717;53.360;6.290;2022-11-14T13:01:36;11.40;99.90
64396;DHT22;50717;53.360;6.290;2022-11-14T13:09:30;11.00;99.90
64396;DHT22;50717;53.360;6.290;2022-11-14T13:11:58;11.50;99.90
64396;DHT22;50717;53.360;6.290;2022-11-14T13:15:28;11.30;99.90
64396;DHT22;50717;53.360;6.290;2022-11-14T13:18:21;11.10;99.90
64396;DHT22;50717;53.360;6.290;2022-11-14T13:21:26;11.10;99.90
64396;DHT22;50717;53.360;6.290;2022-11-14T13:24:21;11.10;99.90
64396;DHT22;50717;53.360;6.290;2022-11-14T13:26:48;10.60;99.90
64396;DHT22;50717;53.360;6.290;2022-11-14T13:32:09;10.10;99.90
64396;DHT22;50717;53.360;6.290;2022-11-14T13:34:58;9.70;99.90
64396;DHT22;50717;53.360;6.290;2022-11-14T13:45:51;9.00;99.90
64396;DHT22;50717;53.360;6.290;2022-11-14T13:50:58;9.00;99.90
64396;DHT22;50717;53.360;6.290;2022-11-14T13:53:27;9.10;99.90
64396;DHT22;50717;53.360;6.290;2022-11-14T14:15:21;8.90;99.90
64396;DHT22;50717;53.360;6.290;2022-11-14T14:18:07;8.70;99.90
64396;DHT22;50717;53.360;6.290;2022-11-14T14:28:26;8.80;99.90
64396;DHT22;50717;53.360;6.290;2022-11-14T14:31:20;8.80;99.90
64396;DHT22;50717;53.360;6.290;2022-11-14T14:33:50;9.10;99.90
64396;DHT22;50717;53.360;6.290;2022-11-14T14:36:27;8.90;99.90
64396;DHT22;50717;53.360;6.290;2022-11-14T14:41:44;8.90;99.90
64396;DHT22;50717;53.360;6.290;2022-11-14T14:46:44;8.70;99.90
64396;DHT22;50717;53.360;6.290;2022-11-14T14:49:10;9.30;99.90
64396;DHT22;50717;53.360;6.290;2022-11-14T14:51:41;8.40;99.90
64396;DHT22;50717;53.360;6.290;2022-11-14T14:54:25;8.60;99.90
64396;DHT22;50717;53.360;6.290;2022-11-14T14:56:55;8.20;99.90
64396;DHT22;50717;53.360;6.290;2022-11-14T14:59:26;8.30;99.90
64396;DHT22;50717;53.360;6.290;2022-11-14T15:01:52;8.40;99.90
64396;DHT22;50717;53.360;6.290;2022-11-14T15:04:21;8.60;99.90
64396;DHT22;50717;53.360;6.290;2022-11-14T15:06:47;9.30;99.90
64396;DHT22;50717;53.360;6.290;2022-11-14T15:09:22;8.50;99.90
64396;DHT22;50717;53.360;6.290;2022-11-14T15:11:51;8.90;99.90
64396;DHT22;50717;53.360;6.290;2022-11-14T15:14:24;7.90;99.90
64396;DHT22;50717;53.360;6.290;2022-11-14T15:16:51;8.90;99.90
64396;DHT22;50717;53.360;6.290;2022-11-14T15:19:20;8.70;99.90
64396;DHT22;50717;53.360;6.290;2022-11-14T15:24:25;6.00;99.90
64396;DHT22;50717;53.360;6.290;2022-11-14T15:26:51;8.00;99.90
64396;DHT22;50717;53.360;6.290;2022-11-14T15:29:19;7.80;99.90
64396;DHT22;50717;53.360;6.290;2022-11-14T15:31:48;8.40;99.90
64396;DHT22;50717;53.360;6.290;2022-11-14T15:34:30;7.70;99.90
64396;DHT22;50717;53.360;6.290;2022-11-14T15:39:44;7.80;99.90
64396;DHT22;50717;53.360;6.290;2022-11-14T15:42:31;7.50;99.90
64396;DHT22;50717;53.360;6.290;2022-11-14T15:44:56;7.60;99.90
64396;DHT22;50717;53.360;6.290;2022-11-14T15:47:23;7.40;99.90
64396;DHT22;50717;53.360;6.290;2022-11-14T15:50:01;7.30;99.90
64396;DHT22;50717;53.360;6.290;2022-11-14T15:52:46;7.50;99.90
64396;DHT22;50717;53.360;6.290;2022-11-14T15:55:15;7.40;99.90
64396;DHT22;50717;53.360;6.290;2022-11-14T15:57:41;7.20;99.90
64396;DHT22;50717;53.360;6.290;2022-11-14T16:00:15;8.40;99.90
64396;DHT22;50717;53.360;6.290;2022-11-14T16:02:53;7.10;99.90
64396;DHT22;50717;53.360;6.290;2022-11-14T16:05:28;7.00;99.90
64396;DHT22;50717;53.360;6.290;2022-11-14T16:07:54;7.20;99.90
64396;DHT22;50717;53.360;6.290;2022-11-14T16:10:21;6.90;99.90
64396;DHT22;50717;53.360;6.290;2022-11-14T16:12:47;7.30;99.90
64396;DHT22;50717;53.360;6.290;2022-11-14T16:15:13;8.10;99.90
64396;DHT22;50717;53.360;6.290;2022-11-14T16:17:42;7.10;99.90
64396;DHT22;50717;53.360;6.290;2022-11-14T16:20:17;8.50;99.90
64396;DHT22;50717;53.360;6.290;2022-11-14T16:29:17;7.70;99.90
64396;DHT22;50717;53.360;6.290;2022-11-14T16:31:43;7.60;99.90
64396;DHT22;50717;53.360;6.290;2022-11-14T16:34:23;7.90;99.90
64396;DHT22;50717;53.360;6.290;2022-11-14T16:36:51;7.80;99.90
64396;DHT22;50717;53.360;6.290;2022-11-14T16:39:21;8.40;99.90
64396;DHT22;50717;53.360;6.290;2022-11-14T16:41:46;7.70;99.90
64396;DHT22;50717;53.360;6.290;2022-11-14T16:44:14;8.70;99.90
64396;DHT22;50717;53.360;6.290;2022-11-14T16:46:42;8.90;99.90
64396;DHT22;50717;53.360;6.290;2022-11-14T16:49:15;8.40;99.90
64396;DHT22;50717;53.360;6.290;2022-11-14T16:51:47;8.20;99.90
64396;DHT22;50717;53.360;6.290;2022-11-14T16:54:13;8.10;99.90
64396;DHT22;50717;53.360;6.290;2022-11-14T16:56:39;8.10;99.90
64396;DHT22;50717;53.360;6.290;2022-11-14T16:59:05;9.10;99.90
64396;DHT22;50717;53.360;6.290;2022-11-14T17:01:33;8.50;99.90
64396;DHT22;50717;53.360;6.290;2022-11-14T17:03:58;8.80;99.90
64396;DHT22;50717;53.360;6.290;2022-11-14T17:06:25;8.50;99.90
64396;DHT22;50717;53.360;6.290;2022-11-14T17:08:58;8.40;99.90
64396;DHT22;50717;53.360;6.290;2022-11-14T17:11:24;8.50;99.90
64396;DHT22;50717;53.360;6.290;2022-11-14T17:13:50;8.20;99.90
64396;DHT22;50717;53.360;6.290;2022-11-14T17:16:17;9.30;99.90
64396;DHT22;50717;53.360;6.290;2022-11-14T17:18:42;7.90;99.90
64396;DHT22;50717;53.360;6.290;2022-11-14T17:21:10;8.70;99.90
64396;DHT22;50717;53.360;6.290;2022-11-14T17:23:36;8.30;99.90
64396;DHT22;50717;53.360;6.290;2022-11-14T17:26:06;9.00;99.90
64396;DHT22;50717;53.360;6.290;2022-11-14T17:28:33;8.40;99.90
64396;DHT22;50717;53.360;6.290;2022-11-14T17:30:59;8.00;99.90
64396;DHT22;50717;53.360;6.290;2022-11-14T17:33:25;8.10;99.90
64396;DHT22;50717;53.360;6.290;2022-11-14T17:35:50;8.30;99.90
64396;DHT22;50717;53.360;6.290;2022-11-14T17:38:16;9.10;99.90
64396;DHT22;50717;53.360;6.290;2022-11-14T17:40:42;8.40;99.90
64396;DHT22;50717;53.360;6.290;2022-11-14T17:43:07;8.30;99.90
64396;DHT22;50717;53.360;6.290;2022-11-14T17:45:33;8.50;99.90
64396;DHT22;50717;53.360;6.290;2022-11-14T17:47:59;8.30;99.90
64396;DHT22;50717;53.360;6.290;2022-11-14T17:50:25;8.20;99.90
64396;DHT22;50717;53.360;6.290;2022-11-14T17:52:50;8.30;99.90
64396;DHT22;50717;53.360;6.290;2022-11-14T17:55:16;8.20;99.90
64396;DHT22;50717;53.360;6.290;2022-11-14T17:57:41;9.10;99.90
64396;DHT22;50717;53.360;6.290;2022-11-14T18:00:08;8.60;99.90
64396;DHT22;50717;53.360;6.290;2022-11-14T18:02:34;7.90;99.90
64396;DHT22;50717;53.360;6.290;2022-11-14T18:04:59;9.20;99.90
64396;DHT22;50717;53.360;6.290;2022-11-14T18:07:25;8.00;99.90
64396;DHT22;50717;53.360;6.290;2022-11-14T18:09:51;8.30;99.90
64396;DHT22;50717;53.360;6.290;2022-11-14T18:12:16;7.80;99.90
64396;DHT22;50717;53.360;6.290;2022-11-14T18:14:42;7.40;99.90
64396;DHT22;50717;53.360;6.290;2022-11-14T18:17:07;8.60;99.90
64396;DHT22;50717;53.360;6.290;2022-11-14T18:19:33;7.70;99.90
64396;DHT22;50717;53.360;6.290;2022-11-14T18:21:59;7.70;99.90
64396;DHT22;50717;53.360;6.290;2022-11-14T18:24:24;7.60;99.90
64396;DHT22;50717;53.360;6.290;2022-11-14T18:26:50;7.70;99.90
64396;DHT22;50717;53.360;6.290;2022-11-14T18:29:16;7.30;99.90
64396;DHT22;50717;53.360;6.290;2022-11-14T18:31:42;7.30;99.90
64396;DHT22;50717;53.360;6.290;2022-11-14T18:34:08;7.70;99.90
64396;DHT22;50717;53.360;6.290;2022-11-14T18:36:33;7.50;99.90
64396;DHT22;50717;53.360;6.290;2022-11-14T18:38:59;7.20;99.90
64396;DHT22;50717;53.360;6.290;2022-11-14T18:41:25;7.10;99.90
64396;DHT22;50717;53.360;6.290;2022-11-14T18:43:54;8.30;99.90
64396;DHT22;50717;53.360;6.290;2022-11-14T18:46:21;7.50;99.90
64396;DHT22;50717;53.360;6.290;2022-11-14T18:48:51;8.10;99.90
64396;DHT22;50717;53.360;6.290;2022-11-14T18:51:26;7.30;99.90
64396;DHT22;50717;53.360;6.290;2022-11-14T18:53:52;7.80;99.90
64396;DHT22;50717;53.360;6.290;2022-11-14T18:56:21;8.20;99.90
64396;DHT22;50717;53.360;6.290;2022-11-14T18:58:51;8.40;99.90
64396;DHT22;50717;53.360;6.290;2022-11-14T19:01:26;7.50;99.90
64396;DHT22;50717;53.360;6.290;2022-11-14T19:04:07;7.60;99.90
64396;DHT22;50717;53.360;6.290;2022-11-14T19:06:35;7.80;99.90
64396;DHT22;50717;53.360;6.290;2022-11-14T19:09:03;8.50;99.90
64396;DHT22;50717;53.360;6.290;2022-11-14T19:11:30;8.40;99.90